Time;durP1;ratioP1;P1;durP2;ratioP2;P2;SDS_P1;SDS_P2;PMS_P1;PMS_P2;Temp;Humidity;BMP_temperature;BMP_pressure;BME280_temperature;BME280_humidity;BME280_pressure;Samples;Min_cycle;Max_cycle;Signal;HPM_P1;HPM_P2
2022/06/28 00:01:45;;;;;;;2.50;2.30;;;;;;;19.58;74.63;99294.84;105107;1271;76983;-24
2022/06/28 00:04:12;;;;;;;2.90;2.70;;;;;;;19.29;75.87;99291.50;105060;1271;74522;-24
2022/06/28 00:06:39;;;;;;;1.80;1.40;;;;;;;18.97;77.08;99291.55;105089;1271;62974;-24
2022/06/28 00:09:07;;;;;;;1.20;1.10;;;;;;;18.70;77.59;99292.80;105073;1271;63341;-24
2022/06/28 00:11:34;;;;;;;2.90;1.40;;;;;;;19.08;77.60;99293.50;105107;1271;75249;-24
2022/06/28 00:14:01;;;;;;;2.50;2.30;;;;;;;19.55;76.23;99289.34;104857;1274;77073;-24
2022/06/28 00:16:28;;;;;;;2.50;2.30;;;;;;;19.60;75.89;99287.92;105055;1274;75480;-24
2022/06/28 00:18:55;;;;;;;4.10;2.80;;;;;;;19.41;76.02;99293.91;105096;1271;61942;-24
2022/06/28 00:21:24;;;;;;;2.90;2.60;;;;;;;19.15;76.31;99293.56;105064;1271;62885;-24
2022/06/28 00:23:51;;;;;;;6.20;3.50;;;;;;;18.84;77.79;99293.71;105091;1271;75922;-24
2022/06/28 00:26:18;;;;;;;2.70;2.00;;;;;;;18.61;78.56;99298.70;104806;1271;75527;-24
2022/06/28 00:28:45;;;;;;;1.70;1.60;;;;;;;19.03;77.71;99295.11;104853;1271;75440;-24
2022/06/28 00:31:13;;;;;;;3.00;2.70;;;;;;;19.49;76.47;99294.41;104841;1271;63038;-24
2022/06/28 00:33:41;;;;;;;2.30;2.10;;;;;;;19.51;75.70;99292.25;105053;1271;63057;-24
2022/06/28 00:36:08;;;;;;;1.70;1.40;;;;;;;19.31;75.94;99294.09;104778;1271;75207;-24
2022/06/28 00:38:35;;;;;;;3.10;2.70;;;;;;;19.03;76.28;99294.69;104794;1271;77007;-24
2022/06/28 00:41:02;;;;;;;4.30;2.60;;;;;;;18.76;76.78;99293.98;105075;1271;73881;-24
2022/06/28 00:43:29;;;;;;;1.50;1.40;;;;;;;18.55;77.31;99289.63;104855;1274;64711;-24
2022/06/28 00:45:57;;;;;;;1.90;1.70;;;;;;;18.95;77.78;99289.94;105074;1271;61728;-24
2022/06/28 00:48:24;;;;;;;1.90;1.70;;;;;;;19.42;76.45;99291.23;104718;1271;76820;-24
2022/06/28 00:50:51;;;;;;;2.50;2.20;;;;;;;19.42;75.90;99291.15;104765;1271;76391;-24
2022/06/28 00:53:19;;;;;;;4.00;2.50;;;;;;;19.15;76.42;99291.78;104858;1271;74326;-24
2022/06/28 00:55:46;;;;;;;2.80;2.60;;;;;;;18.78;77.38;99294.86;104891;1271;62079;-24
2022/06/28 00:58:14;;;;;;;7.40;3.00;;;;;;;18.40;77.93;99290.93;105114;1271;63085;-24
2022/06/28 01:00:47;;;;;;;1.30;1.20;;;;;;;18.12;78.55;99286.27;104849;1271;75711;-24
2022/06/28 01:03:18;;;;;;;1.50;1.40;;;;;;;18.51;78.79;99285.18;105089;1271;76983;-24
2022/06/28 01:05:47;;;;;;;2.00;1.80;;;;;;;19.00;77.54;99290.85;104724;1274;75345;-24
2022/06/28 01:08:15;;;;;;;3.00;2.70;;;;;;;19.00;77.09;99290.81;105013;1271;61480;-24
2022/06/28 01:10:42;;;;;;;1.30;1.20;;;;;;;18.75;76.96;99291.61;104934;1271;62728;-24
2022/06/28 01:13:11;;;;;;;1.60;1.50;;;;;;;18.46;77.79;99286.40;104916;1271;76836;-24
2022/06/28 01:15:40;;;;;;;0.90;0.90;;;;;;;18.20;78.85;99285.72;104747;1271;77151;-24
2022/06/28 01:18:08;;;;;;;1.40;1.30;;;;;;;18.57;79.07;99282.35;104795;1271;74231;-23
2022/06/28 01:20:45;;;;;;;2.40;2.20;;;;;;;18.99;77.37;99278.20;105004;1271;61923;-23
2022/06/28 01:23:16;;;;;;;2.70;2.50;;;;;;;18.89;75.99;99278.36;104605;1274;63067;-23
2022/06/28 01:25:45;;;;;;;2.90;2.70;;;;;;;18.54;76.18;99277.27;104758;1271;76498;-23
2022/06/28 01:28:14;;;;;;;4.30;4.00;;;;;;;18.16;77.53;99273.34;105038;1271;77152;-23
2022/06/28 01:30:42;;;;;;;3.20;2.40;;;;;;;17.94;78.86;99271.69;104880;1271;75259;-23
2022/06/28 01:33:21;;;;;;;3.20;2.80;;;;;;;18.32;78.18;99271.95;105043;1274;62792;-23
2022/06/28 01:35:48;;;;;;;3.20;2.90;;;;;;;18.73;77.14;99267.76;104853;1272;63050;-23
2022/06/28 01:38:17;;;;;;;2.80;2.60;;;;;;;18.70;77.14;99266.02;104826;1271;76559;-23
2022/06/28 01:40:46;;;;;;;4.00;3.60;;;;;;;18.51;77.27;99263.35;104596;1274;76949;-23
2022/06/28 01:43:14;;;;;;;4.50;4.10;;;;;;;18.24;77.41;99260.34;104602;1274;75466;-23
2022/06/28 01:45:42;;;;;;;3.20;2.40;;;;;;;18.01;78.39;99262.48;104798;1271;63007;-23
2022/06/28 01:48:09;;;;;;;3.00;2.70;;;;;;;18.36;78.00;99260.66;105048;1271;62937;-23
2022/06/28 01:50:55;;;;;;;6.20;3.00;;;;;;;18.84;76.28;99256.22;104828;1271;76505;-23
2022/06/28 01:53:22;;;;;;;2.60;2.40;;;;;;;18.78;75.87;99252.40;104847;1274;76961;-23
2022/06/28 01:56:16;;;;;;;3.40;3.10;;;;;;;18.46;76.21;99252.66;105077;1271;74580;-23
2022/06/28 01:59:00;;;;;;;3.60;3.30;;;;;;;18.06;76.19;99252.45;104917;1271;62830;-23
2022/06/28 02:01:36;;;;;;;2.00;1.90;;;;;;;17.75;77.64;99261.40;104856;1271;61823;-23
2022/06/28 02:04:24;;;;;;;3.40;3.10;;;;;;;18.11;77.75;99260.34;104760;1271;75481;-23
2022/06/28 02:06:56;;;;;;;3.70;3.20;;;;;;;18.41;76.43;99257.95;104605;1271;77256;-23
2022/06/28 02:09:24;;;;;;;4.30;3.90;;;;;;;18.26;75.55;99254.94;104752;1271;75140;-23
2022/06/28 02:11:52;;;;;;;5.00;3.30;;;;;;;17.95;75.86;99254.22;104987;1271;63130;-23
2022/06/28 02:14:23;;;;;;;4.00;3.60;;;;;;;17.57;76.92;99251.98;104732;1274;63199;-23
2022/06/28 02:16:50;;;;;;;3.80;3.50;;;;;;;17.27;77.63;99251.10;105071;1271;76547;-23
2022/06/28 02:19:17;;;;;;;3.30;2.60;;;;;;;17.01;78.16;99253.80;104733;1271;77122;-23
2022/06/28 02:21:45;;;;;;;2.40;2.20;;;;;;;17.40;79.57;99255.33;104910;1271;75294;-23
2022/06/28 02:24:13;;;;;;;3.10;2.70;;;;;;;17.96;77.82;99253.59;104986;1272;61431;-24
2022/06/28 02:26:41;;;;;;;3.60;3.10;;;;;;;18.10;76.87;99254.36;104924;1274;63084;-24
2022/06/28 02:29:08;;;;;;;10.20;6.20;;;;;;;18.07;77.20;99253.81;104945;1272;75601;-24
2022/06/28 02:31:36;;;;;;;4.70;3.80;;;;;;;17.97;76.95;99251.52;105060;1271;76051;-24
2022/06/28 02:34:04;;;;;;;2.70;2.50;;;;;;;17.91;77.09;99249.91;104966;1271;74720;-24
2022/06/28 02:42:04;;;;;;;3.20;2.70;;;;;;;19.08;74.52;99256.93;104745;1273;76621;-24
2022/06/28 02:44:31;;;;;;;3.30;3.00;;;;;;;18.95;74.56;99255.59;104763;1271;76760;-24
2022/06/28 02:46:58;;;;;;;3.20;2.90;;;;;;;18.91;74.36;99256.52;104829;1271;73095;-24
2022/06/28 02:49:25;;;;;;;2.10;1.90;;;;;;;18.95;74.47;99255.22;104662;1274;64748;-24
2022/06/28 02:51:53;;;;;;;2.40;2.20;;;;;;;19.55;72.32;99252.00;104876;1271;62094;-24
2022/06/28 02:54:20;;;;;;;3.30;3.00;;;;;;;20.26;69.73;99249.65;104978;1271;75387;-24
2022/06/28 02:56:47;;;;;;;3.40;3.10;;;;;;;20.47;69.31;99249.45;104846;1271;75854;-24
2022/06/28 02:59:14;;;;;;;4.00;3.70;;;;;;;20.48;69.42;99249.80;105062;1271;75349;-24
2022/06/28 03:01:42;;;;;;;4.10;3.70;;;;;;;20.49;70.02;99249.16;104767;1271;61804;-24
2022/06/28 03:04:09;;;;;;;4.20;3.80;;;;;;;20.53;70.54;99251.23;104780;1272;61948;-24
2022/06/28 03:06:36;;;;;;;3.90;2.90;;;;;;;20.61;70.10;99254.81;104735;1274;76276;-24
2022/06/28 03:09:04;;;;;;;5.00;3.60;;;;;;;21.27;68.91;99254.66;104634;1274;77028;-24
2022/06/28 03:11:32;;;;;;;4.20;3.60;;;;;;;22.00;65.97;99257.95;105072;1272;75439;-24
2022/06/28 03:13:59;;;;;;;4.70;4.30;;;;;;;22.20;65.60;99262.90;104791;1271;63542;-24
2022/06/28 03:16:26;;;;;;;4.30;3.80;;;;;;;22.21;64.12;99261.65;104611;1274;62808;-24
2022/06/28 03:18:54;;;;;;;5.10;4.50;;;;;;;21.84;64.65;99263.95;104836;1271;75868;-24
2022/06/28 03:21:21;;;;;;;5.60;4.30;;;;;;;21.73;65.95;99262.69;105178;1271;75951;-24
2022/06/28 03:23:48;;;;;;;4.70;4.30;;;;;;;21.79;66.47;99263.36;105081;1271;74740;-24
2022/06/28 03:26:16;;;;;;;5.40;4.20;;;;;;;21.91;66.38;99262.33;105071;1271;61657;-24
2022/06/28 03:28:43;;;;;;;2.90;2.60;;;;;;;22.02;66.47;99261.71;104879;1274;63005;-24
2022/06/28 03:31:10;;;;;;;3.00;2.80;;;;;;;22.75;65.99;99264.04;105099;1272;76840;-24
2022/06/28 03:33:38;;;;;;;3.80;3.20;;;;;;;23.55;64.00;99262.35;105141;1271;76066;-24
2022/06/28 03:36:05;;;;;;;3.60;3.30;;;;;;;23.94;62.79;99268.12;105055;1274;75481;-24
2022/06/28 03:38:35;;;;;;;4.20;3.80;;;;;;;24.03;62.41;99272.48;104800;1271;62086;-24
2022/06/28 03:41:23;;;;;;;5.20;3.90;;;;;;;23.87;62.63;99271.91;104729;1271;63068;-24
2022/06/28 03:44:07;;;;;;;4.60;4.20;;;;;;;23.82;62.90;99270.55;104728;1274;75591;-24
2022/06/28 03:46:35;;;;;;;9.10;4.40;;;;;;;23.66;63.80;99271.47;104786;1271;77346;-24
2022/06/28 03:49:27;;;;;;;4.70;4.30;;;;;;;23.64;64.40;99271.92;104833;1271;74043;-24
2022/06/28 03:51:58;;;;;;;8.70;4.80;;;;;;;23.72;64.08;99270.98;104725;1271;61721;-24
2022/06/28 03:54:27;;;;;;;9.90;6.80;;;;;;;23.84;64.46;99268.77;104878;1271;63294;-24
2022/06/28 03:57:13;;;;;;;4.70;4.00;;;;;;;24.74;63.28;99269.85;104981;1271;76610;-21
2022/06/28 03:59:40;;;;;;;5.40;4.10;;;;;;;25.53;61.05;99269.45;104855;1274;77377;-22
2022/06/28 04:02:07;;;;;;;7.00;4.60;;;;;;;25.84;60.10;99272.38;104910;1272;75560;-23
2022/06/28 04:04:35;;;;;;;9.80;6.40;;;;;;;25.84;60.37;99274.44;104804;1274;63363;-24
2022/06/28 04:07:02;;;;;;;7.70;6.90;;;;;;;25.74;60.39;99276.13;104772;1271;63059;-24
2022/06/28 04:09:30;;;;;;;9.30;6.50;;;;;;;25.73;59.98;99279.83;104837;1272;76633;-23
2022/06/28 04:11:57;;;;;;;16.40;13.50;;;;;;;25.77;59.94;99277.00;104705;1271;77151;-24
2022/06/28 04:14:24;;;;;;;16.20;12.70;;;;;;;25.77;60.29;99276.02;104792;1272;75218;-24
2022/06/28 04:16:52;;;;;;;9.10;8.20;;;;;;;25.78;60.42;99277.16;104736;1271;61966;-24
2022/06/28 04:19:31;;;;;;;9.20;8.30;;;;;;;25.75;60.20;99277.44;104858;1271;63243;-24
2022/06/28 04:21:59;;;;;;;16.10;14.40;;;;;;;25.79;60.18;99277.35;104628;1274;76581;-24
2022/06/28 04:24:27;;;;;;;22.80;19.30;;;;;;;25.86;60.30;99274.41;104685;1271;75724;-24
2022/06/28 04:27:20;;;;;;;24.80;22.30;;;;;;;25.93;59.88;99272.00;104950;1274;74371;-24
2022/06/28 04:29:48;;;;;;;27.80;24.80;;;;;;;25.96;59.84;99276.70;104912;1271;61910;-24
2022/06/28 04:32:34;;;;;;;28.00;24.70;;;;;;;26.17;59.39;99274.90;105114;1271;62789;-24
2022/06/28 04:35:04;;;;;;;25.60;23.10;;;;;;;26.38;58.38;99276.48;104829;1274;75387;-24
2022/06/28 04:37:31;;;;;;;26.20;23.40;;;;;;;26.55;58.09;99275.86;104735;1271;75909;-24
2022/06/28 04:40:00;;;;;;;23.00;19.90;;;;;;;26.68;57.75;99276.48;104776;1274;74985;-24
2022/06/28 04:42:46;;;;;;;27.70;18.80;;;;;;;26.88;56.92;99273.89;105110;1271;61742;-24
2022/06/28 04:45:14;;;;;;;17.80;14.50;;;;;;;27.08;54.97;99278.52;105105;1271;61144;-24
2022/06/28 04:47:54;;;;;;;14.30;12.90;;;;;;;27.10;52.79;99275.84;105091;1272;76571;-24
2022/06/28 04:50:21;;;;;;;25.40;13.20;;;;;;;27.02;53.82;99276.70;105045;1274;77015;-24
2022/06/28 04:52:49;;;;;;;14.90;10.90;;;;;;;27.14;54.98;99277.46;104762;1272;75359;-24
2022/06/28 04:55:17;;;;;;;10.60;9.60;;;;;;;27.34;54.62;99277.82;104788;1271;63436;-24
2022/06/28 04:57:49;;;;;;;10.10;8.30;;;;;;;27.47;54.12;99278.20;104596;1274;61775;-23
2022/06/28 05:00:17;;;;;;;10.40;8.00;;;;;;;27.39;52.26;99278.98;104768;1274;76547;-24
2022/06/28 05:02:54;;;;;;;19.50;10.60;;;;;;;27.60;53.31;99284.95;104930;1272;76860;-24
2022/06/28 05:05:45;;;;;;;20.10;14.10;;;;;;;27.85;52.47;99283.66;104714;1271;74257;-24
2022/06/28 05:08:13;;;;;;;11.80;9.90;;;;;;;28.00;52.57;99285.94;104746;1274;61729;-24
2022/06/28 05:10:57;;;;;;;14.90;10.50;;;;;;;28.22;51.48;99282.84;104594;1274;63173;-24
2022/06/28 05:13:30;;;;;;;17.50;12.00;;;;;;;28.46;51.28;99276.83;104779;1271;75642;-24
2022/06/28 05:15:58;;;;;;;14.80;12.00;;;;;;;28.66;50.58;99274.17;104799;1271;75951;-24
2022/06/28 05:18:26;;;;;;;19.90;12.60;;;;;;;28.81;49.70;99268.99;104683;1271;74458;-24
2022/06/28 05:21:00;;;;;;;15.80;11.30;;;;;;;29.06;49.22;99268.86;104738;1271;63111;-24
2022/06/28 05:23:28;;;;;;;13.00;10.10;;;;;;;29.23;47.86;99263.87;104723;1274;61961;-24
2022/06/28 05:26:13;;;;;;;7.00;6.30;;;;;;;29.41;47.16;99268.38;104770;1271;77046;-23
2022/06/28 05:28:45;;;;;;;8.30;6.90;;;;;;;29.48;41.82;99267.56;104737;1271;77036;-24
2022/06/28 05:31:12;;;;;;;7.00;6.30;;;;;;;29.57;45.36;99270.96;104697;1271;75165;-24
2022/06/28 05:33:47;;;;;;;8.50;6.40;;;;;;;29.75;44.00;99273.33;104702;1271;61116;-24
2022/06/28 05:36:17;;;;;;;8.40;6.50;;;;;;;29.95;42.67;99274.20;104772;1271;62811;-24
2022/06/28 05:38:44;;;;;;;8.70;6.00;;;;;;;30.10;42.75;99269.30;104714;1271;75347;-24
2022/06/28 05:41:20;;;;;;;9.70;6.90;;;;;;;30.30;43.14;99267.41;104755;1271;75700;-24
2022/06/28 05:43:55;;;;;;;9.30;6.40;;;;;;;30.56;43.06;99266.75;104682;1272;75407;-23
2022/06/28 05:46:33;;;;;;;11.10;7.30;;;;;;;30.71;42.13;99267.71;104759;1270;63053;-24
2022/06/28 05:49:05;;;;;;;9.80;5.80;;;;;;;30.82;42.89;99267.84;104704;1272;62053;-23
2022/06/28 05:51:32;;;;;;;9.30;6.30;;;;;;;30.66;40.52;99264.86;104675;1277;76961;-24
2022/06/28 05:54:24;;;;;;;11.20;6.50;;;;;;;30.37;39.11;99262.61;104975;1271;76395;-24
2022/06/28 05:57:01;;;;;;;9.40;7.10;;;;;;;30.51;40.50;99263.36;104745;1274;75305;-24
2022/06/28 05:59:32;;;;;;;9.20;6.00;;;;;;;30.62;40.97;99266.28;105056;1271;61972;-24
2022/06/28 06:02:00;;;;;;;10.80;8.30;;;;;;;30.75;40.53;99267.86;104963;1271;63041;-23
2022/06/28 06:04:28;;;;;;;6.80;5.10;;;;;;;30.93;39.15;99269.23;104685;1271;75521;-23
2022/06/28 06:06:56;;;;;;;7.50;5.60;;;;;;;31.22;39.40;99270.14;104720;1271;76918;-23
2022/06/28 06:09:23;;;;;;;10.80;6.00;;;;;;;31.43;39.25;99270.62;104763;1271;75283;-24
2022/06/28 06:11:51;;;;;;;9.30;6.60;;;;;;;31.66;39.30;99269.16;104662;1271;62942;-23
2022/06/28 06:14:23;;;;;;;12.20;7.70;;;;;;;31.83;38.63;99267.30;104649;1274;61767;-23
2022/06/28 06:16:50;;;;;;;10.40;6.40;;;;;;;31.85;38.73;99271.56;104850;1271;76360;-23
2022/06/28 06:19:20;;;;;;;9.30;7.30;;;;;;;31.79;38.94;99272.45;104676;1272;75257;-23
2022/06/28 06:21:47;;;;;;;8.20;7.10;;;;;;;31.71;39.84;99272.50;104828;1271;74496;-24
2022/06/28 06:24:14;;;;;;;7.40;6.20;;;;;;;31.58;40.79;99275.02;104638;1274;61940;-24
2022/06/28 06:27:03;;;;;;;7.60;6.00;;;;;;;31.49;40.67;99276.38;104770;1271;61816;-23
2022/06/28 06:29:31;;;;;;;6.70;6.00;;;;;;;31.62;40.47;99275.48;104705;1271;76321;-23
2022/06/28 06:31:59;;;;;;;10.10;7.20;;;;;;;31.79;40.01;99277.45;105089;1272;77136;-23
2022/06/28 06:34:52;;;;;;;20.50;6.40;;;;;;;31.90;38.25;99274.61;104738;1274;75434;-23
2022/06/28 06:37:19;;;;;;;4.70;4.00;;;;;;;31.80;38.20;99272.45;104759;1272;62072;-23
2022/06/28 06:39:47;;;;;;;6.30;3.60;;;;;;;31.46;37.76;99271.34;104825;1271;62010;-23
2022/06/28 06:42:14;;;;;;;5.60;3.60;;;;;;;31.54;38.79;99269.42;104794;1271;76658;-23
2022/06/28 06:44:45;;;;;;;7.30;3.90;;;;;;;31.53;38.31;99266.50;104799;1274;76973;-23
2022/06/28 06:47:13;;;;;;;4.30;3.10;;;;;;;31.39;38.97;99269.41;104800;1274;75354;-23
2022/06/28 06:49:41;;;;;;;4.60;3.20;;;;;;;31.57;39.48;99266.42;104751;1274;62369;-23
2022/06/28 06:52:08;;;;;;;4.70;2.50;;;;;;;31.69;37.45;99269.63;104857;1271;63419;-23
2022/06/28 06:54:39;;;;;;;5.30;3.00;;;;;;;31.48;35.75;99270.40;104684;1274;76567;-23
2022/06/28 06:57:07;;;;;;;4.00;2.20;;;;;;;31.56;37.02;99268.19;104671;1274;77002;-23
2022/06/28 06:59:34;;;;;;;2.80;2.60;;;;;;;31.79;36.61;99270.02;104905;1271;75414;-23
2022/06/28 07:02:02;;;;;;;6.30;2.50;;;;;;;32.06;36.21;99266.44;105014;1272;61141;-23
2022/06/28 07:04:36;;;;;;;7.20;2.20;;;;;;;32.31;35.55;99272.97;104565;1274;63062;-23
2022/06/28 07:07:04;;;;;;;3.00;2.50;;;;;;;32.30;35.90;99273.99;104744;1272;75391;-23
2022/06/28 07:09:31;;;;;;;4.40;2.30;;;;;;;32.00;34.68;99272.16;104778;1274;76815;-23
2022/06/28 07:11:58;;;;;;;2.70;2.30;;;;;;;31.55;36.78;99278.88;104817;1271;75353;-23
2022/06/28 07:14:26;;;;;;;2.80;2.50;;;;;;;31.73;35.87;99282.58;104711;1274;62924;-23
2022/06/28 07:16:55;;;;;;;4.10;2.30;;;;;;;31.88;34.92;99283.42;105058;1274;60989;-23
2022/06/28 07:19:22;;;;;;;5.70;2.60;;;;;;;31.81;34.83;99283.42;105106;1271;76554;-23
2022/06/28 07:21:50;;;;;;;6.60;2.40;;;;;;;31.85;34.75;99286.64;105108;1271;77113;-23
2022/06/28 07:24:17;;;;;;;4.80;2.00;;;;;;;31.58;35.28;99293.27;105054;1272;74064;-23
2022/06/28 07:26:45;;;;;;;2.20;1.90;;;;;;;31.65;34.48;99291.60;105049;1271;63182;-23
2022/06/28 07:29:14;;;;;;;2.70;2.50;;;;;;;31.38;33.59;99293.34;104888;1271;61699;-23
2022/06/28 07:31:44;;;;;;;6.20;3.20;;;;;;;30.82;34.89;99296.04;104476;1274;75648;-23
2022/06/28 07:34:13;;;;;;;7.30;2.80;;;;;;;30.58;36.01;99289.92;104662;1274;77071;-23
2022/06/28 07:36:41;;;;;;;3.50;2.50;;;;;;;30.82;35.95;99292.28;104770;1274;75224;-23
2022/06/28 07:39:09;;;;;;;4.10;2.60;;;;;;;31.14;36.49;99293.94;104971;1274;62073;-23
2022/06/28 07:41:54;;;;;;;3.20;2.50;;;;;;;30.90;36.94;99287.11;104885;1274;61930;-23
2022/06/28 07:44:40;;;;;;;2.20;2.00;;;;;;;31.10;39.22;99288.74;104713;1274;75658;-23
2022/06/28 07:47:07;;;;;;;3.40;2.60;;;;;;;31.36;37.86;99287.79;104071;1274;761344;-23
2022/06/28 07:52:37;;;;;;;5.60;3.10;;;;;;;31.44;38.49;99291.23;104598;1274;61998;-23
2022/06/28 07:55:09;;;;;;;4.90;3.10;;;;;;;31.52;37.58;99286.84;104913;1274;62956;-23
2022/06/28 07:57:51;;;;;;;6.90;2.90;;;;;;;31.52;39.11;99291.45;104596;1274;76334;-23
2022/06/28 08:00:21;;;;;;;5.10;3.00;;;;;;;31.30;36.53;99292.07;104630;1274;77030;-23
2022/06/28 08:02:58;;;;;;;3.40;3.00;;;;;;;31.10;38.05;99290.91;104914;1274;75481;-23
2022/06/28 08:05:26;;;;;;;3.50;2.90;;;;;;;30.90;38.74;99290.25;104753;1274;61766;-23
2022/06/28 08:07:53;;;;;;;7.90;4.00;;;;;;;31.37;37.80;99291.02;104664;1274;62785;-23
2022/06/28 08:10:22;;;;;;;8.40;4.40;;;;;;;31.69;37.06;99287.01;104624;1274;76710;-24
2022/06/28 08:12:50;;;;;;;6.00;4.50;;;;;;;30.88;35.13;99283.91;104767;1274;77418;-23
2022/06/28 08:15:17;;;;;;;4.00;2.60;;;;;;;30.80;35.95;99281.84;104708;1274;75246;-23
2022/06/28 08:17:45;;;;;;;3.40;3.10;;;;;;;31.00;36.52;99287.04;104669;1274;63020;-23
2022/06/28 08:20:12;;;;;;;3.60;2.70;;;;;;;31.57;36.27;99283.73;104593;1274;63056;-23
2022/06/28 08:22:40;;;;;;;3.10;2.80;;;;;;;31.74;36.36;99284.35;104574;1274;76573;-23
2022/06/28 08:25:08;;;;;;;2.90;2.60;;;;;;;31.91;36.79;99276.60;104597;1274;75977;-23
2022/06/28 08:27:36;;;;;;;4.50;3.90;;;;;;;32.13;35.11;99273.63;104682;1274;75396;-23
2022/06/28 08:30:05;;;;;;;4.70;3.50;;;;;;;30.71;37.47;99274.44;104609;1275;63052;-24
2022/06/28 08:32:32;;;;;;;5.10;3.00;;;;;;;31.35;38.53;99273.63;104682;1271;63014;-23
2022/06/28 08:35:00;;;;;;;4.90;3.60;;;;;;;31.49;36.78;99273.14;104805;1272;77505;-23
2022/06/28 08:37:27;;;;;;;6.60;4.30;;;;;;;31.63;37.92;99270.11;104705;1271;77384;-24
2022/06/28 08:39:55;;;;;;;4.40;3.30;;;;;;;31.92;38.84;99270.89;104839;1271;73619;-23
2022/06/28 08:42:26;;;;;;;12.80;5.90;;;;;;;31.99;37.27;99270.08;104768;1272;61162;-23
2022/06/28 08:44:54;;;;;;;8.10;5.40;;;;;;;31.41;36.69;99267.09;104667;1274;62022;-23
2022/06/28 08:47:22;;;;;;;4.20;3.80;;;;;;;31.25;37.31;99270.95;104920;1271;76548;-23
2022/06/28 08:50:13;;;;;;;14.20;8.80;;;;;;;31.61;37.47;99269.89;104694;1274;76998;-24
2022/06/28 08:52:43;;;;;;;6.00;3.30;;;;;;;30.98;37.98;99275.23;104799;1272;74621;-23
2022/06/28 08:55:11;;;;;;;6.30;3.50;;;;;;;31.53;36.79;99267.08;104749;1274;62096;-23
2022/06/28 08:57:43;;;;;;;5.40;3.60;;;;;;;31.96;36.56;99270.81;104799;1272;63090;-23
2022/06/28 09:00:12;;;;;;;5.30;3.30;;;;;;;32.47;35.72;99263.65;104951;1271;76430;-23
2022/06/28 09:02:39;;;;;;;5.20;3.20;;;;;;;32.45;35.39;99260.40;104701;1271;76986;-23
2022/06/28 09:05:08;;;;;;;7.30;3.90;;;;;;;32.29;36.37;99260.95;104905;1271;73607;-23
2022/06/28 09:07:35;;;;;;;3.30;3.00;;;;;;;32.58;35.90;99256.55;104751;1271;62483;-23
2022/06/28 09:10:03;;;;;;;5.10;3.20;;;;;;;32.78;35.08;99254.56;104810;1271;62938;-23
2022/06/28 09:12:32;;;;;;;3.50;3.10;;;;;;;32.94;35.59;99254.36;104754;1271;76823;-23
2022/06/28 09:14:59;;;;;;;3.10;2.80;;;;;;;33.20;33.90;99248.02;104810;1272;75820;-24
2022/06/28 09:17:29;;;;;;;3.90;2.80;;;;;;;33.37;33.50;99248.50;104793;1271;75383;-23
2022/06/28 09:20:00;;;;;;;5.40;3.30;;;;;;;33.52;33.57;99241.58;104664;1271;63078;-24
2022/06/28 09:22:46;;;;;;;4.40;3.00;;;;;;;32.96;33.41;99242.92;104619;1274;61971;-23
2022/06/28 09:25:27;;;;;;;4.80;3.00;;;;;;;32.28;33.52;99248.30;104655;1274;75562;-23
2022/06/28 09:27:59;;;;;;;3.20;2.50;;;;;;;32.35;33.87;99244.86;104444;1276;77068;-24
2022/06/28 09:30:27;;;;;;;3.50;2.80;;;;;;;32.20;34.54;99241.98;104730;1272;75363;-24
2022/06/28 09:32:55;;;;;;;5.50;3.70;;;;;;;31.63;35.92;99240.02;104609;1274;63064;-24
2022/06/28 09:35:24;;;;;;;3.10;2.80;;;;;;;32.51;34.97;99235.31;104716;1271;62052;-23
2022/06/28 09:37:51;;;;;;;3.20;2.70;;;;;;;33.07;33.76;99232.11;104773;1271;76578;-23
2022/06/28 09:40:28;;;;;;;3.10;2.80;;;;;;;33.21;33.00;99230.27;104789;1274;76092;-24
2022/06/28 09:43:09;;;;;;;2.70;2.50;;;;;;;33.31;33.17;99223.73;104676;1274;75356;-23
2022/06/28 09:45:38;;;;;;;4.40;3.00;;;;;;;33.29;33.16;99220.11;104754;1272;63314;-24
2022/06/28 09:48:06;;;;;;;5.60;4.00;;;;;;;32.16;34.96;99223.71;104672;1271;63009;-23
2022/06/28 09:51:58;;;;;;;4.60;3.90;;;;;;;32.22;34.52;99222.83;102323;1300;616289;-24
2022/06/28 09:54:28;;;;;;;5.90;4.00;;;;;;;32.12;34.40;99217.02;104267;1284;62051;-24
2022/06/28 09:56:56;;;;;;;5.60;3.50;;;;;;;32.49;34.83;99217.05;104439;1284;61103;-24
2022/06/28 09:59:25;;;;;;;5.70;3.30;;;;;;;32.88;34.71;99219.85;104353;1284;72810;-23
2022/06/28 10:01:55;;;;;;;4.30;2.60;;;;;;;33.53;33.70;99216.48;104298;1287;74875;-23
2022/06/28 10:04:24;;;;;;;3.90;2.80;;;;;;;33.83;31.08;99214.98;103787;1281;368098;-24
2022/06/28 10:06:52;;;;;;;3.30;2.80;;;;;;;33.83;32.15;99210.09;104512;1281;61101;-24
2022/06/28 10:09:20;;;;;;;6.30;3.30;;;;;;;34.37;32.12;99206.55;104602;1281;61657;-24
2022/06/28 10:17:23;;;;;;;10.30;2.90;;;;;;;34.32;31.84;99208.00;104508;1281;74247;-24
2022/06/28 10:19:50;;;;;;;4.60;3.10;;;;;;;33.76;32.81;99207.77;104597;1281;61131;-24
2022/06/28 10:22:19;;;;;;;8.00;3.50;;;;;;;34.31;32.01;99198.26;104500;1278;62404;-24
2022/06/28 10:24:51;;;;;;;12.70;6.20;;;;;;;33.52;31.93;99199.23;104399;1278;74574;-24
2022/06/28 10:27:18;;;;;;;9.80;6.00;;;;;;;33.20;32.87;99197.51;104626;1278;76062;-24
2022/06/28 10:29:58;;;;;;;3.70;3.00;;;;;;;31.96;33.77;99196.71;104686;1278;74294;-24
2022/06/28 10:32:42;;;;;;;5.20;3.20;;;;;;;31.60;34.70;99196.33;104589;1280;62031;-24
2022/06/28 10:35:10;;;;;;;4.20;3.30;;;;;;;32.15;35.10;99187.09;104464;1281;61140;-24
2022/06/28 10:38:10;;;;;;;2.80;2.60;;;;;;;33.47;33.84;99188.67;104620;1277;75012;-24
2022/06/28 10:40:39;;;;;;;4.00;3.00;;;;;;;32.93;33.38;99185.16;104591;1277;75897;-24
2022/06/28 10:43:15;;;;;;;8.40;4.00;;;;;;;32.96;34.40;99190.83;104353;1278;73273;-24
2022/06/28 10:46:05;;;;;;;12.30;4.40;;;;;;;33.44;31.25;99191.38;104533;1278;61082;-24
2022/06/28 10:48:48;;;;;;;9.80;5.50;;;;;;;32.81;31.98;99187.39;104472;1278;61950;-24
2022/06/28 10:51:19;;;;;;;4.30;3.10;;;;;;;32.61;32.43;99185.14;104533;1280;74557;-24
2022/06/28 10:54:01;;;;;;;7.60;5.20;;;;;;;32.10;33.19;99189.50;104204;1281;76203;-24
2022/06/28 10:56:52;;;;;;;13.30;6.90;;;;;;;31.33;35.03;99192.72;104437;1281;74682;-24
2022/06/28 10:59:20;;;;;;;3.50;3.20;;;;;;;31.53;35.07;99188.09;104388;1281;62266;-24
2022/06/28 11:01:50;;;;;;;4.90;2.70;;;;;;;31.95;34.84;99185.83;104539;1281;61159;-24
2022/06/28 11:04:18;;;;;;;10.80;6.00;;;;;;;32.44;33.44;99179.48;104639;1281;74255;-24
2022/06/28 11:06:46;;;;;;;5.00;3.20;;;;;;;31.85;32.80;99182.48;104612;1281;76840;-24
2022/06/28 11:09:23;;;;;;;3.40;2.80;;;;;;;31.61;33.34;99180.23;104632;1281;74365;-25
2022/06/28 11:12:25;;;;;;;3.00;2.40;;;;;;;32.44;34.30;99175.59;104541;1281;61156;-24
2022/06/28 11:14:56;;;;;;;4.30;2.70;;;;;;;33.07;31.13;99176.29;104600;1280;61173;-24
2022/06/28 11:17:36;;;;;;;5.50;3.50;;;;;;;33.55;32.33;99174.86;104478;1281;74357;-24
2022/06/28 11:20:09;;;;;;;5.80;3.30;;;;;;;32.93;32.46;99169.74;104419;1281;74858;-24
2022/06/28 11:22:47;;;;;;;7.30;4.80;;;;;;;33.80;32.13;99174.19;104202;1278;74416;-24
2022/06/28 11:25:17;;;;;;;11.30;4.90;;;;;;;32.83;32.03;99173.09;104235;1281;62118;-25
2022/06/28 11:27:53;;;;;;;3.70;3.20;;;;;;;32.45;32.73;99174.14;104351;1279;61112;-24
2022/06/28 11:30:27;;;;;;;4.60;2.90;;;;;;;32.64;33.01;99177.98;105055;1271;73516;-24
2022/06/28 11:32:56;;;;;;;8.60;4.30;;;;;;;32.86;33.13;99173.45;104811;1271;75958;-24
2022/06/28 11:35:28;;;;;;;5.10;3.40;;;;;;;32.82;32.59;99174.77;104937;1271;74326;-24
2022/06/28 11:37:59;;;;;;;6.10;3.40;;;;;;;33.03;31.75;99172.47;104958;1271;62147;-24
2022/06/28 11:40:38;;;;;;;6.20;3.50;;;;;;;32.89;32.98;99162.91;105197;1271;61134;-24
2022/06/28 11:43:15;;;;;;;4.70;2.70;;;;;;;33.24;32.83;99163.52;105057;1271;73663;-24
2022/06/28 11:45:46;;;;;;;4.80;2.90;;;;;;;33.45;30.74;99163.24;104954;1271;76325;-24
2022/06/28 11:48:19;;;;;;;;;;;;;;;33.60;30.70;99160.70;104942;1271;73374;-24
2022/06/28 11:50:49;;;;;;;6.40;3.50;;;;;;;33.66;31.61;99161.20;104710;1271;61211;-24
2022/06/28 11:53:17;;;;;;;10.60;4.80;;;;;;;33.42;31.33;99155.45;104861;1271;61078;-24
2022/06/28 11:55:48;;;;;;;5.90;2.80;;;;;;;32.98;32.72;99152.98;104912;1271;74717;-24
2022/06/28 11:58:27;;;;;;;6.10;4.00;;;;;;;33.09;32.12;99152.95;104790;1271;74910;-24